Mustafa Sofuoglu — TCOJ7 — position and weather

sailwx.info

Track history (hours):
 
Tides and Currents Weather Stations Pressure Air Temp Water Temp Dewpoint Dewpoint Depression Visibility Wind Speed Wind Dir Waves Ship Positions

Mustafa Sofuoglu

Last reported at 2015-Mar-03 04:33 UTC. Time now 2015-Mar-06 20:10 UTC.
Position N 41°17' E 029°06'.

Length 106 m; draft 7 m.

Type: Cargo ship. MMSI: 271000831.

Date/timePositionNaut miles runAvg speedWind from/ knotsBaromVisibWave heightAir tempDewpointWater temp
2015-Mar-03 04:33N 41°17' E 029°06'2 0.2
2015-Mar-02 21:25N 41°17' E 029°04'1010.9
2015-Mar-02 20:31N 41°26' E 029°11'1212.7
2015-Mar-02 19:33N 41°37' E 029°16'1312.5
2015-Mar-02 18:33N 41°50' E 029°19'30111.5
2015-Mar-01 16:25N 46°35' E 031°31'1011.5
2015-Mar-01 15:33N 46°36' E 031°45'1110.0
2015-Mar-01 14:30N 46°43' E 031°56'8 8.5
2015-Mar-01 13:33N 46°51' E 031°58'1 0.9
2015-Mar-01 12:33N 46°51' E 031°59'0 0.0
2015-Mar-01 11:33N 46°51' E 031°59'0 0.0
2015-Mar-01 10:33N 46°51' E 031°59'0 0.0
2015-Mar-01 09:33N 46°51' E 031°59'0 0.0
2015-Mar-01 08:33N 46°51' E 031°59'0 0.0
2015-Mar-01 07:33N 46°51' E 031°59'0 0.0
2015-Mar-01 06:33N 46°51' E 031°59'0 0.0
2015-Mar-01 05:33N 46°51' E 031°59'0 0.0
2015-Mar-01 04:33N 46°51' E 031°59'0 0.0
2015-Mar-01 03:33N 46°51' E 031°59'0 0.0
2015-Mar-01 02:30N 46°51' E 031°59'0 0.0
2015-Mar-01 01:33N 46°51' E 031°59'0 0.0
2015-Mar-01 00:33N 46°51' E 031°59'0 0.0
2015-Feb-28 23:33N 46°51' E 031°59'0 0.0
2015-Feb-28 22:33N 46°51' E 031°59'0 0.0
2015-Feb-28 21:33N 46°51' E 031°59'0 0.0
2015-Feb-28 20:33N 46°51' E 031°59'0 0.0
2015-Feb-28 19:33N 46°51' E 031°59'0 0.0
2015-Feb-28 18:33N 46°51' E 031°59'0 0.0
2015-Feb-28 17:30N 46°51' E 031°59'0 0.0
2015-Feb-28 16:33N 46°51' E 031°59'0 0.0
2015-Feb-28 15:33N 46°51' E 031°59'0 0.0
2015-Feb-28 14:33N 46°51' E 031°59'0 0.0
2015-Feb-28 13:33N 46°51' E 031°59'0 0.0
2015-Feb-28 12:33N 46°51' E 031°59'0 0.0
2015-Feb-28 11:33N 46°51' E 031°59'0 0.0
2015-Feb-28 10:33N 46°51' E 031°59'0 0.0
2015-Feb-28 09:30N 46°51' E 031°59'0 0.0
2015-Feb-28 08:33N 46°51' E 031°59'0 0.0
2015-Feb-28 07:33N 46°51' E 031°59'0 0.0
2015-Feb-28 06:33N 46°51' E 031°59'0 0.0
2015-Feb-28 05:33N 46°51' E 031°59'0 0.0
2015-Feb-28 04:33N 46°51' E 031°59'0 0.0
2015-Feb-28 03:33N 46°51' E 031°59'0 0.0
2015-Feb-28 02:33N 46°51' E 031°59'0 0.0
2015-Feb-28 01:33N 46°51' E 031°59'0 0.0
2015-Feb-28 00:30N 46°51' E 031°59'0 0.0
2015-Feb-27 23:33N 46°51' E 031°59'0 0.0
2015-Feb-27 22:33N 46°51' E 031°59'0 0.0
2015-Feb-27 21:33N 46°51' E 031°59'0 0.0
2015-Feb-27 20:33N 46°51' E 031°59'0 0.0
2015-Feb-27 19:33N 46°51' E 031°59'0 0.0
2015-Feb-27 18:33N 46°51' E 031°59'0 0.0
2015-Feb-27 17:33N 46°51' E 031°59'0 0.0
2015-Feb-27 16:33N 46°51' E 031°59'0 0.0
2015-Feb-27 15:33N 46°51' E 031°59'0 0.0
2015-Feb-27 14:33N 46°51' E 031°59'0 0.0
2015-Feb-27 13:33N 46°51' E 031°59'0 0.0
2015-Feb-27 12:33N 46°51' E 031°59'0 0.0
2015-Feb-27 11:33N 46°51' E 031°59'0 0.0
2015-Feb-27 10:33N 46°51' E 031°59'0 0.0
2015-Feb-27 09:33N 46°51' E 031°59'0 0.0
2015-Feb-27 08:33N 46°51' E 031°59'0 0.0
2015-Feb-27 07:30N 46°51' E 031°59'0 0.0
2015-Feb-27 06:33N 46°51' E 031°59'0 0.0
2015-Feb-27 05:33N 46°51' E 031°59'0 0.0
2015-Feb-27 04:33N 46°51' E 031°59'0 0.0
2015-Feb-27 03:33N 46°51' E 031°59'0 0.0
2015-Feb-27 02:33N 46°51' E 031°59'0 0.0
2015-Feb-27 01:33N 46°51' E 031°59'5 5.4
2015-Feb-27 00:33N 46°47' E 031°53'1010.4
2015-Feb-26 23:33N 46°37' E 031°52'1312.7
2015-Feb-26 22:33N 46°35' E 031°34'6 4.8
2015-Feb-26 21:23N 46°34' E 031°25'0 0.0
2015-Feb-26 15:32N 46°34' E 031°26'32312.7
2015-Feb-25 14:11N 41°25' E 029°14'813.1
2015-Feb-25 13:33N 41°18' E 029°11'2110.6
2015-Feb-25 11:33N 40°58' E 028°60'7 6.6
2015-Feb-25 10:33N 40°54' E 029°06'5 4.4
2015-Feb-25 09:32N 40°52' E 029°12'0 0.0
2015-Feb-25 08:32N 40°52' E 029°12'0 0.0
2015-Feb-25 07:26N 40°52' E 029°12'0 0.0
2015-Feb-25 06:32N 40°52' E 029°12'0 0.1
2015-Feb-25 05:26N 40°52' E 029°12'0 0.0
2015-Feb-25 04:26N 40°52' E 029°12'0 0.0
2015-Feb-25 03:32N 40°52' E 029°12'0 0.0
2015-Feb-25 02:32N 40°52' E 029°12'0 0.0
2015-Feb-25 01:32N 40°52' E 029°12'0 0.0
2015-Feb-25 00:32N 40°52' E 029°12'0 0.0
2015-Feb-24 23:32N 40°52' E 029°12'0 0.0
2015-Feb-24 22:32N 40°52' E 029°12'0 0.0
2015-Feb-24 21:33N 40°52' E 029°12'0 0.1
2015-Feb-24 20:33N 40°52' E 029°12'0 0.1
2015-Feb-24 19:33N 40°52' E 029°12'0 0.2
2015-Feb-24 18:33N 40°51' E 029°12'1111.1
2015-Feb-24 17:33N 40°45' E 029°23'7 0.8
2015-Feb-24 08:33N 40°46' E 029°33'0 0.0
2015-Feb-24 06:27N 40°46' E 029°33'0 0.0
2015-Feb-24 05:33N 40°46' E 029°33'0 0.0
2015-Feb-24 04:27N 40°46' E 029°33'0 0.0
2015-Feb-24 03:27N 40°46' E 029°33'0 0.0
2015-Feb-24 02:33N 40°46' E 029°33'0 0.0
2015-Feb-24 01:33N 40°46' E 029°33'0 0.0
2015-Feb-24 00:15N 40°46' E 029°33'0 0.0
2015-Feb-23 22:28N 40°46' E 029°33'0 0.0
2015-Feb-23 20:28N 40°46' E 029°33'0 0.0
2015-Feb-23 18:16N 40°46' E 029°33'0 0.0
2015-Feb-23 17:16N 40°46' E 029°33'0 0.0
2015-Feb-23 16:04N 40°46' E 029°33'0 0.0
2015-Feb-23 15:28N 40°46' E 029°33'0 0.0
2015-Feb-23 11:28N 40°46' E 029°33'0 0.0
2015-Feb-23 10:16N 40°46' E 029°33'0 0.0
2015-Feb-23 09:28N 40°46' E 029°33'0 0.0
2015-Feb-23 08:33N 40°46' E 029°33'8 7.9
2015-Feb-23 07:31N 40°45' E 029°22'36 3.6
2015-Feb-22 21:31N 41°17' E 029°02'0 0.0
2015-Feb-22 20:16N 41°17' E 029°02'0 0.0
2015-Feb-22 19:10N 41°17' E 029°02'0 0.0
2015-Feb-22 18:31N 41°17' E 029°02'0 0.0
2015-Feb-22 11:31N 41°17' E 029°02'0 0.0
2015-Feb-22 10:22N 41°17' E 029°02'0 0.0
2015-Feb-22 09:22N 41°17' E 029°02'0 0.0
2015-Feb-22 07:28N 41°17' E 029°02'0 0.0
2015-Feb-22 06:25N 41°17' E 029°02'0 0.0
2015-Feb-22 05:22N 41°17' E 029°02'0 0.0
2015-Feb-22 04:16N 41°17' E 029°02'  
Track history (hours):
 
Tides and Currents Weather Stations Pressure Air Temp Water Temp Dewpoint Dewpoint Depression Visibility Wind Speed Wind Dir Waves Ship Positions

Mustafa Sofuoglu

Last reported at 2015-Mar-03 04:33 UTC. Time now 2015-Mar-06 20:10 UTC.
Position N 41°17' E 029°06'.

Length 106 m; draft 7 m.

Type: Cargo ship. MMSI: 271000831.

Date/timePositionNaut miles runAvg speedWind from/ knotsBaromVisibWave heightAir tempDewpointWater temp
2015-Mar-03 04:33N 41°17' E 029°06'2 0.2
2015-Mar-02 21:25N 41°17' E 029°04'1010.9
2015-Mar-02 20:31N 41°26' E 029°11'1212.7
2015-Mar-02 19:33N 41°37' E 029°16'1312.5
2015-Mar-02 18:33N 41°50' E 029°19'30111.5
2015-Mar-01 16:25N 46°35' E 031°31'1011.5
2015-Mar-01 15:33N 46°36' E 031°45'1110.0
2015-Mar-01 14:30N 46°43' E 031°56'8 8.5
2015-Mar-01 13:33N 46°51' E 031°58'1 0.9
2015-Mar-01 12:33N 46°51' E 031°59'0 0.0
2015-Mar-01 11:33N 46°51' E 031°59'0 0.0
2015-Mar-01 10:33N 46°51' E 031°59'0 0.0
2015-Mar-01 09:33N 46°51' E 031°59'0 0.0
2015-Mar-01 08:33N 46°51' E 031°59'0 0.0
2015-Mar-01 07:33N 46°51' E 031°59'0 0.0
2015-Mar-01 06:33N 46°51' E 031°59'0 0.0
2015-Mar-01 05:33N 46°51' E 031°59'0 0.0
2015-Mar-01 04:33N 46°51' E 031°59'0 0.0
2015-Mar-01 03:33N 46°51' E 031°59'0 0.0
2015-Mar-01 02:30N 46°51' E 031°59'0 0.0
2015-Mar-01 01:33N 46°51' E 031°59'0 0.0
2015-Mar-01 00:33N 46°51' E 031°59'0 0.0
2015-Feb-28 23:33N 46°51' E 031°59'0 0.0
2015-Feb-28 22:33N 46°51' E 031°59'0 0.0
2015-Feb-28 21:33N 46°51' E 031°59'0 0.0
2015-Feb-28 20:33N 46°51' E 031°59'0 0.0
2015-Feb-28 19:33N 46°51' E 031°59'0 0.0
2015-Feb-28 18:33N 46°51' E 031°59'0 0.0
2015-Feb-28 17:30N 46°51' E 031°59'0 0.0
2015-Feb-28 16:33N 46°51' E 031°59'0 0.0
2015-Feb-28 15:33N 46°51' E 031°59'0 0.0
2015-Feb-28 14:33N 46°51' E 031°59'0 0.0
2015-Feb-28 13:33N 46°51' E 031°59'0 0.0
2015-Feb-28 12:33N 46°51' E 031°59'0 0.0
2015-Feb-28 11:33N 46°51' E 031°59'0 0.0
2015-Feb-28 10:33N 46°51' E 031°59'0 0.0
2015-Feb-28 09:30N 46°51' E 031°59'0 0.0
2015-Feb-28 08:33N 46°51' E 031°59'0 0.0
2015-Feb-28 07:33N 46°51' E 031°59'0 0.0
2015-Feb-28 06:33N 46°51' E 031°59'0 0.0
2015-Feb-28 05:33N 46°51' E 031°59'0 0.0
2015-Feb-28 04:33N 46°51' E 031°59'0 0.0
2015-Feb-28 03:33N 46°51' E 031°59'0 0.0
2015-Feb-28 02:33N 46°51' E 031°59'0 0.0
2015-Feb-28 01:33N 46°51' E 031°59'0 0.0
2015-Feb-28 00:30N 46°51' E 031°59'0 0.0
2015-Feb-27 23:33N 46°51' E 031°59'0 0.0
2015-Feb-27 22:33N 46°51' E 031°59'0 0.0
2015-Feb-27 21:33N 46°51' E 031°59'0 0.0
2015-Feb-27 20:33N 46°51' E 031°59'0 0.0
2015-Feb-27 19:33N 46°51' E 031°59'0 0.0
2015-Feb-27 18:33N 46°51' E 031°59'0 0.0
2015-Feb-27 17:33N 46°51' E 031°59'0 0.0
2015-Feb-27 16:33N 46°51' E 031°59'0 0.0
2015-Feb-27 15:33N 46°51' E 031°59'0 0.0
2015-Feb-27 14:33N 46°51' E 031°59'0 0.0
2015-Feb-27 13:33N 46°51' E 031°59'0 0.0
2015-Feb-27 12:33N 46°51' E 031°59'0 0.0
2015-Feb-27 11:33N 46°51' E 031°59'0 0.0
2015-Feb-27 10:33N 46°51' E 031°59'0 0.0
2015-Feb-27 09:33N 46°51' E 031°59'0 0.0
2015-Feb-27 08:33N 46°51' E 031°59'0 0.0
2015-Feb-27 07:30N 46°51' E 031°59'0 0.0
2015-Feb-27 06:33N 46°51' E 031°59'0 0.0
2015-Feb-27 05:33N 46°51' E 031°59'0 0.0
2015-Feb-27 04:33N 46°51' E 031°59'0 0.0
2015-Feb-27 03:33N 46°51' E 031°59'0 0.0
2015-Feb-27 02:33N 46°51' E 031°59'0 0.0
2015-Feb-27 01:33N 46°51' E 031°59'5 5.4
2015-Feb-27 00:33N 46°47' E 031°53'1010.4
2015-Feb-26 23:33N 46°37' E 031°52'1312.7
2015-Feb-26 22:33N 46°35' E 031°34'6 4.8
2015-Feb-26 21:23N 46°34' E 031°25'0 0.0
2015-Feb-26 15:32N 46°34' E 031°26'32312.7
2015-Feb-25 14:11N 41°25' E 029°14'813.1
2015-Feb-25 13:33N 41°18' E 029°11'2110.6
2015-Feb-25 11:33N 40°58' E 028°60'7 6.6
2015-Feb-25 10:33N 40°54' E 029°06'5 4.4
2015-Feb-25 09:32N 40°52' E 029°12'0 0.0
2015-Feb-25 08:32N 40°52' E 029°12'0 0.0
2015-Feb-25 07:26N 40°52' E 029°12'0 0.0
2015-Feb-25 06:32N 40°52' E 029°12'0 0.1
2015-Feb-25 05:26N 40°52' E 029°12'0 0.0
2015-Feb-25 04:26N 40°52' E 029°12'0 0.0
2015-Feb-25 03:32N 40°52' E 029°12'0 0.0
2015-Feb-25 02:32N 40°52' E 029°12'0 0.0
2015-Feb-25 01:32N 40°52' E 029°12'0 0.0
2015-Feb-25 00:32N 40°52' E 029°12'0 0.0
2015-Feb-24 23:32N 40°52' E 029°12'0 0.0
2015-Feb-24 22:32N 40°52' E 029°12'0 0.0
2015-Feb-24 21:33N 40°52' E 029°12'0 0.1
2015-Feb-24 20:33N 40°52' E 029°12'0 0.1
2015-Feb-24 19:33N 40°52' E 029°12'0 0.2
2015-Feb-24 18:33N 40°51' E 029°12'1111.1
2015-Feb-24 17:33N 40°45' E 029°23'7 0.8
2015-Feb-24 08:33N 40°46' E 029°33'0 0.0
2015-Feb-24 06:27N 40°46' E 029°33'0 0.0
2015-Feb-24 05:33N 40°46' E 029°33'0 0.0
2015-Feb-24 04:27N 40°46' E 029°33'0 0.0
2015-Feb-24 03:27N 40°46' E 029°33'0 0.0
2015-Feb-24 02:33N 40°46' E 029°33'0 0.0
2015-Feb-24 01:33N 40°46' E 029°33'0 0.0
2015-Feb-24 00:15N 40°46' E 029°33'0 0.0
2015-Feb-23 22:28N 40°46' E 029°33'0 0.0
2015-Feb-23 20:28N 40°46' E 029°33'0 0.0
2015-Feb-23 18:16N 40°46' E 029°33'0 0.0
2015-Feb-23 17:16N 40°46' E 029°33'0 0.0
2015-Feb-23 16:04N 40°46' E 029°33'0 0.0
2015-Feb-23 15:28N 40°46' E 029°33'0 0.0
2015-Feb-23 11:28N 40°46' E 029°33'0 0.0
2015-Feb-23 10:16N 40°46' E 029°33'0 0.0
2015-Feb-23 09:28N 40°46' E 029°33'0 0.0
2015-Feb-23 08:33N 40°46' E 029°33'8 7.9
2015-Feb-23 07:31N 40°45' E 029°22'36 3.6
2015-Feb-22 21:31N 41°17' E 029°02'0 0.0
2015-Feb-22 20:16N 41°17' E 029°02'0 0.0
2015-Feb-22 19:10N 41°17' E 029°02'0 0.0
2015-Feb-22 18:31N 41°17' E 029°02'0 0.0
2015-Feb-22 11:31N 41°17' E 029°02'0 0.0
2015-Feb-22 10:22N 41°17' E 029°02'0 0.0
2015-Feb-22 09:22N 41°17' E 029°02'0 0.0
2015-Feb-22 07:28N 41°17' E 029°02'0 0.0
2015-Feb-22 06:25N 41°17' E 029°02'0 0.0
2015-Feb-22 05:22N 41°17' E 029°02'0 0.0
2015-Feb-22 04:16N 41°17' E 029°02'  

Dump ship's entire track history